createdAt,value
2019-02-25T00:01:58.815Z,34.27
2019-02-25T00:04:30.855Z,34.46
2019-02-25T00:07:02.090Z,35.37
2019-02-25T00:09:33.103Z,34.57
2019-02-25T00:12:04.085Z,33.93
2019-02-25T00:14:35.073Z,32.83
2019-02-25T00:17:06.139Z,32.49
2019-02-25T00:19:37.443Z,32.87
2019-02-25T00:22:08.417Z,32.11
2019-02-25T00:24:39.455Z,31.62
2019-02-25T00:27:11.526Z,30.92
2019-02-25T00:29:42.844Z,31.39
2019-02-25T00:32:14.064Z,31.70
2019-02-25T00:34:45.347Z,32.04
2019-02-25T00:37:16.882Z,31.68
2019-02-25T00:39:47.835Z,31.50
2019-02-25T00:42:18.884Z,31.33
2019-02-25T00:44:50.245Z,31.58
2019-02-25T00:47:21.267Z,31.25
2019-02-25T00:49:52.842Z,30.62
2019-02-25T00:52:23.888Z,30.85
2019-02-25T00:54:54.836Z,30.65
2019-02-25T00:57:26.132Z,30.83
2019-02-25T00:59:57.112Z,30.43
2019-02-25T01:02:28.145Z,31.06
2019-02-25T01:05:00.311Z,30.62
2019-02-25T01:07:31.315Z,32.17
2019-02-25T01:10:02.368Z,33.27
2019-02-25T01:12:33.545Z,34.08
2019-02-25T01:15:06.182Z,34.63
2019-02-25T01:17:38.485Z,34.93
2019-02-25T01:20:10.477Z,34.99
2019-02-25T01:22:41.776Z,35.83
2019-02-25T01:25:12.955Z,36.51
2019-02-25T01:27:44.095Z,35.94
2019-02-25T01:30:15.903Z,35.05
2019-02-25T01:32:47.198Z,34.60
2019-02-25T01:35:18.352Z,34.30
2019-02-25T01:37:49.392Z,35.13
2019-02-25T01:40:20.362Z,34.27
2019-02-25T01:42:51.668Z,34.24
2019-02-25T01:45:22.856Z,33.87
2019-02-25T01:47:54.039Z,34.87
2019-02-25T01:50:25.430Z,35.12
2019-02-25T01:52:56.722Z,35.14
2019-02-25T01:55:27.676Z,36.60
2019-02-25T01:57:58.709Z,35.95
2019-02-25T02:00:30.395Z,35.62
2019-02-25T02:03:01.443Z,35.70
2019-02-25T02:05:32.450Z,35.98
2019-02-25T02:08:03.407Z,35.93
2019-02-25T02:10:34.730Z,36.40
2019-02-25T02:13:13.906Z,36.91
2019-02-25T02:15:39.291Z,36.48
2019-02-25T02:18:10.434Z,35.67
2019-02-25T02:20:41.459Z,35.37
2019-02-25T02:23:12.807Z,35.35
2019-02-25T02:25:44.186Z,35.04
2019-02-25T02:28:15.584Z,35.06
2019-02-25T02:30:46.847Z,35.23
2019-02-25T02:33:18.165Z,35.09
2019-02-25T02:35:50.020Z,34.66
2019-02-25T02:38:21.058Z,34.89
2019-02-25T02:40:53.222Z,34.66
2019-02-25T02:43:24.196Z,34.63
2019-02-25T02:46:22.741Z,35.40
2019-02-25T02:48:59.952Z,35.43
2019-02-25T02:51:31.548Z,34.66
2019-02-25T02:54:02.538Z,35.75
2019-02-25T02:56:33.827Z,36.41
2019-02-25T02:59:05.072Z,36.48
2019-02-25T03:01:36.545Z,36.28
2019-02-25T03:04:07.677Z,35.90
2019-02-25T03:06:38.931Z,36.88
2019-02-25T03:09:11.430Z,36.22
2019-02-25T03:11:42.451Z,36.46
2019-02-25T03:14:13.497Z,35.94
2019-02-25T03:16:44.609Z,36.03
2019-02-25T03:19:15.878Z,35.58
2019-02-25T03:21:47.138Z,35.99
2019-02-25T03:24:18.113Z,36.17
2019-02-25T03:26:49.408Z,35.94
2019-02-25T03:29:20.411Z,36.25
2019-02-25T03:31:51.692Z,36.27
2019-02-25T03:34:22.660Z,36.28
2019-02-25T03:36:53.642Z,35.97
2019-02-25T03:39:25.311Z,37.04
2019-02-25T03:41:56.277Z,36.46
2019-02-25T03:44:27.438Z,37.02
2019-02-25T03:46:58.754Z,36.76
2019-02-25T03:49:30.548Z,36.23
2019-02-25T03:52:02.013Z,35.78
2019-02-25T03:54:33.029Z,35.97
2019-02-25T03:57:04.160Z,36.40
2019-02-25T03:59:35.592Z,36.93
2019-02-25T04:02:07.049Z,36.96
2019-02-25T04:04:38.282Z,37.56
2019-02-25T04:07:09.783Z,37.42
2019-02-25T04:09:41.299Z,38.01
2019-02-25T04:12:12.285Z,37.55
2019-02-25T04:14:43.297Z,38.94
2019-02-25T04:17:14.575Z,39.16
2019-02-25T04:19:46.470Z,38.58
2019-02-25T04:22:17.746Z,38.60
2019-02-25T04:24:49.869Z,39.19
2019-02-25T04:27:21.555Z,39.90
2019-02-25T04:29:53.541Z,39.69
2019-02-25T04:32:24.819Z,38.81
2019-02-25T04:34:56.138Z,38.33
2019-02-25T04:37:27.113Z,37.61
2019-02-25T04:39:58.429Z,37.24
2019-02-25T04:42:30.688Z,37.30
2019-02-25T04:45:02.033Z,36.87
2019-02-25T04:47:33.350Z,36.93
2019-02-25T04:50:04.763Z,37.37
2019-02-25T04:52:35.762Z,37.93
2019-02-25T04:55:07.308Z,37.48
2019-02-25T04:57:38.756Z,37.73
2019-02-25T05:00:13.768Z,37.68
2019-02-25T05:02:44.983Z,37.82
2019-02-25T05:05:16.120Z,38.21
2019-02-25T05:07:47.421Z,38.10
2019-02-25T05:10:18.572Z,37.96
2019-02-25T05:12:57.441Z,38.19
2019-02-25T05:15:29.180Z,38.44
2019-02-25T05:18:00.853Z,38.74
2019-02-25T05:20:32.258Z,38.51
2019-02-25T05:23:03.235Z,38.38
2019-02-25T05:25:34.575Z,38.32
2019-02-25T05:28:05.685Z,38.12
2019-02-25T05:30:36.798Z,38.48
2019-02-25T05:33:08.628Z,38.43
2019-02-25T05:35:39.942Z,38.49
2019-02-25T05:38:11.492Z,38.26
2019-02-25T05:40:42.482Z,38.59
2019-02-25T05:43:13.498Z,39.57
2019-02-25T05:45:44.797Z,39.19
2019-02-25T05:48:15.784Z,38.93
2019-02-25T05:50:47.093Z,37.99
2019-02-25T05:53:19.681Z,38.25
2019-02-25T05:55:50.970Z,38.85
2019-02-25T05:58:22.841Z,39.29
2019-02-25T06:00:54.695Z,39.72
2019-02-25T06:03:25.731Z,39.43
2019-02-25T06:05:57.480Z,39.39
2019-02-25T06:08:28.461Z,39.44
2019-02-25T06:10:59.689Z,40.10
2019-02-25T06:13:31.829Z,39.96
2019-02-25T06:16:03.164Z,39.96
2019-02-25T06:18:34.199Z,40.15
2019-02-25T06:21:05.853Z,40.75
2019-02-25T06:23:36.929Z,40.72
2019-02-25T06:26:08.289Z,39.99
2019-02-25T06:28:39.309Z,40.56
2019-02-25T06:31:10.301Z,40.56
2019-02-25T06:33:41.596Z,40.82
2019-02-25T06:36:14.590Z,40.95
2019-02-25T06:38:45.631Z,41.24
2019-02-25T06:41:16.945Z,41.36
2019-02-25T06:43:48.215Z,40.19
2019-02-25T06:46:19.815Z,40.75
2019-02-25T06:48:52.631Z,40.46
2019-02-25T06:51:25.322Z,40.26
2019-02-25T06:53:56.664Z,40.58
2019-02-25T06:56:28.000Z,39.79
2019-02-25T06:58:59.078Z,39.41
2019-02-25T07:01:31.889Z,39.93
2019-02-25T07:04:19.607Z,39.60
2019-02-25T07:06:58.046Z,39.29
2019-02-25T07:10:06.569Z,39.79
2019-02-25T07:12:45.018Z,39.94
2019-02-25T07:15:22.809Z,39.86
2019-02-25T07:18:04.447Z,39.41
2019-02-25T07:20:53.056Z,39.28
2019-02-25T07:23:42.969Z,39.22
2019-02-25T07:26:42.255Z,39.42
2019-02-25T07:29:20.982Z,39.54
2019-02-25T07:32:14.994Z,39.57
2019-02-25T07:35:03.969Z,40.07
2019-02-25T07:37:53.901Z,39.92
2019-02-25T07:40:50.157Z,39.01
2019-02-25T07:43:40.198Z,39.64
2019-02-25T07:46:26.243Z,38.75
2019-02-25T07:49:31.714Z,38.36
2019-02-25T07:52:18.817Z,37.50
2019-02-25T07:55:03.231Z,37.45
2019-02-25T07:57:45.497Z,37.71
2019-02-25T08:00:25.502Z,37.87
2019-02-25T08:03:14.108Z,38.02
2019-02-25T08:05:51.450Z,38.25
2019-02-25T08:08:39.135Z,37.86
2019-02-25T08:11:41.788Z,37.60
2019-02-25T08:14:34.731Z,37.57
2019-02-25T08:17:27.490Z,38.34
2019-02-25T08:20:23.493Z,37.75
2019-02-25T08:23:26.769Z,35.49
2019-02-25T08:26:05.384Z,35.02
2019-02-25T08:28:50.101Z,33.00
2019-02-25T08:31:40.956Z,33.63
2019-02-25T08:34:25.589Z,34.04
2019-02-25T08:38:03.404Z,32.39
2019-02-25T08:41:23.080Z,31.56
2019-02-25T08:44:19.385Z,29.88
2019-02-25T08:47:02.651Z,30.36
2019-02-25T08:49:49.305Z,28.95
2019-02-25T08:52:20.551Z,28.47
2019-02-25T08:54:51.606Z,28.03
2019-02-25T08:57:22.747Z,28.11
2019-02-25T08:59:54.013Z,28.57
2019-02-25T09:02:25.018Z,28.14
2019-02-25T09:04:56.462Z,27.80
2019-02-25T09:07:27.784Z,28.64
2019-02-25T09:09:59.070Z,28.76
2019-02-25T09:12:30.142Z,27.93
2019-02-25T09:15:01.679Z,28.49
2019-02-25T09:17:42.602Z,28.12
2019-02-25T09:20:14.808Z,28.23
2019-02-25T09:22:45.828Z,27.46
2019-02-25T09:25:16.977Z,27.47
2019-02-25T09:27:48.039Z,27.12
2019-02-25T09:30:19.369Z,27.25
2019-02-25T09:32:50.977Z,27.72
2019-02-25T09:35:22.539Z,27.67
2019-02-25T09:37:53.873Z,28.12
2019-02-25T09:40:24.948Z,27.92
2019-02-25T09:42:55.969Z,27.16
2019-02-25T09:45:27.233Z,27.50
2019-02-25T09:47:58.298Z,27.94
2019-02-25T09:50:29.328Z,27.66
2019-02-25T09:53:00.821Z,27.70
2019-02-25T09:55:32.514Z,27.75
2019-02-25T09:58:04.093Z,28.10
2019-02-25T10:00:35.520Z,28.53
2019-02-25T10:03:06.894Z,28.37
2019-02-25T10:05:38.227Z,28.31
2019-02-25T10:08:09.219Z,28.08
2019-02-25T10:10:40.930Z,28.60
2019-02-25T10:13:15.543Z,28.38
2019-02-25T10:15:46.439Z,28.36
2019-02-25T10:18:17.464Z,28.25
2019-02-25T10:20:48.840Z,27.71
2019-02-25T10:23:19.864Z,27.79
2019-02-25T10:25:50.859Z,27.59
2019-02-25T10:28:21.854Z,27.74
2019-02-25T10:30:54.076Z,27.54
2019-02-25T10:33:25.127Z,27.61
2019-02-25T10:35:56.082Z,27.31
2019-02-25T10:38:27.565Z,27.18
2019-02-25T10:40:59.465Z,27.37
2019-02-25T10:43:34.626Z,27.17
2019-02-25T10:46:09.079Z,27.35
2019-02-25T10:48:40.105Z,26.74
2019-02-25T10:51:13.552Z,27.32
2019-02-25T10:53:45.221Z,27.22
2019-02-25T10:56:35.981Z,26.41
2019-02-25T10:59:08.226Z,26.61
2019-02-25T11:01:41.276Z,26.61
2019-02-25T11:04:12.382Z,26.45
2019-02-25T11:06:43.421Z,26.34
2019-02-25T11:09:29.873Z,26.68
2019-02-25T11:12:02.107Z,26.65
2019-02-25T11:14:35.767Z,26.47
2019-02-25T11:17:06.476Z,27.01
2019-02-25T11:19:37.729Z,26.96
2019-02-25T11:22:10.504Z,26.98
2019-02-25T11:24:42.101Z,26.29
2019-02-25T11:27:13.502Z,26.33
2019-02-25T11:29:46.204Z,26.74
2019-02-25T11:32:19.300Z,26.43
2019-02-25T11:34:51.187Z,27.00
2019-02-25T11:37:24.754Z,27.25
2019-02-25T11:39:57.675Z,27.04
2019-02-25T11:42:30.096Z,26.66
2019-02-25T11:45:04.429Z,26.79
2019-02-25T11:47:35.574Z,26.62
2019-02-25T11:50:07.724Z,26.29
2019-02-25T11:52:39.037Z,27.06
2019-02-25T11:55:11.111Z,27.43
2019-02-25T11:57:42.495Z,27.00
2019-02-25T12:00:21.110Z,26.61
2019-02-25T12:02:52.325Z,27.04
2019-02-25T12:05:23.752Z,26.95
2019-02-25T12:07:54.766Z,27.71
2019-02-25T12:10:25.819Z,27.42
2019-02-25T12:12:57.134Z,27.37
2019-02-25T12:15:28.129Z,27.35
2019-02-25T12:17:59.946Z,27.74
2019-02-25T12:20:32.714Z,28.04
2019-02-25T12:23:04.813Z,27.85
2019-02-25T12:25:36.245Z,27.56
2019-02-25T12:28:07.792Z,27.40
2019-02-25T12:30:39.415Z,27.44
2019-02-25T12:33:10.396Z,27.77
2019-02-25T12:35:41.829Z,28.01
2019-02-25T12:38:13.198Z,27.80
2019-02-25T12:40:44.565Z,27.46
2019-02-25T12:43:15.977Z,27.79
2019-02-25T12:45:46.998Z,27.93
2019-02-25T12:48:18.480Z,27.80
2019-02-25T12:50:49.606Z,27.42
2019-02-25T12:53:20.748Z,27.48
2019-02-25T12:55:52.243Z,27.66
2019-02-25T12:58:23.307Z,27.68
2019-02-25T13:00:54.716Z,28.33
2019-02-25T13:03:26.374Z,27.55
2019-02-25T13:05:57.764Z,27.88
2019-02-25T13:08:29.091Z,27.51
2019-02-25T13:11:00.165Z,27.32
2019-02-25T13:13:32.747Z,27.37
2019-02-25T13:16:03.822Z,27.66
2019-02-25T13:18:34.859Z,28.19
2019-02-25T13:21:06.099Z,28.64
2019-02-25T13:23:37.459Z,28.73
2019-02-25T13:26:09.116Z,28.61
2019-02-25T13:28:40.159Z,28.76
2019-02-25T13:31:11.516Z,28.77
2019-02-25T13:33:44.088Z,28.78
2019-02-25T13:36:15.148Z,29.49
2019-02-25T13:38:46.251Z,29.81
2019-02-25T13:41:17.353Z,29.71
2019-02-25T13:43:49.184Z,29.86
2019-02-25T13:46:20.471Z,29.67
2019-02-25T13:48:51.795Z,30.26
2019-02-25T13:51:22.789Z,30.45
2019-02-25T13:53:54.870Z,30.15
2019-02-25T13:56:26.202Z,29.87
2019-02-25T13:58:57.570Z,29.98
2019-02-25T14:01:29.052Z,30.06
2019-02-25T14:04:00.759Z,30.16
2019-02-25T14:06:32.865Z,30.33
2019-02-25T14:09:04.735Z,30.06
2019-02-25T14:11:38.423Z,30.41
2019-02-25T14:14:09.583Z,30.45
2019-02-25T14:16:41.152Z,30.63
2019-02-25T14:19:12.457Z,30.13
2019-02-25T14:21:43.707Z,30.14
2019-02-25T14:24:15.453Z,30.40
2019-02-25T14:26:46.836Z,30.14
2019-02-25T14:29:17.994Z,30.56
2019-02-25T14:31:51.072Z,30.84
2019-02-25T14:34:21.819Z,30.80
2019-02-25T14:36:54.952Z,31.23
2019-02-25T14:39:28.494Z,30.87
2019-02-25T14:42:01.571Z,30.78
2019-02-25T14:44:35.382Z,31.03
2019-02-25T14:47:19.282Z,31.06
2019-02-25T14:49:40.417Z,31.14
2019-02-25T14:52:12.288Z,31.02
2019-02-25T14:54:45.748Z,31.20
2019-02-25T14:57:16.901Z,31.24
2019-02-25T14:59:48.463Z,31.40
2019-02-25T15:02:19.740Z,31.74
2019-02-25T15:04:51.245Z,31.68
2019-02-25T15:07:22.426Z,31.74
2019-02-25T15:09:53.848Z,31.66
2019-02-25T15:12:27.453Z,31.61
2019-02-25T15:15:00.005Z,31.51
2019-02-25T15:17:32.160Z,31.75
2019-02-25T15:20:03.531Z,31.92
2019-02-25T15:22:36.300Z,31.96
2019-02-25T15:25:10.851Z,32.20
2019-02-25T15:27:42.917Z,32.38
2019-02-25T15:30:18.675Z,32.30
2019-02-25T15:32:55.729Z,32.16
2019-02-25T15:35:26.510Z,32.31
2019-02-25T15:37:57.833Z,32.43
2019-02-25T15:40:30.429Z,32.56
2019-02-25T15:43:13.375Z,32.69
2019-02-25T15:45:44.503Z,32.95
2019-02-25T15:48:18.836Z,33.46
2019-02-25T15:50:55.249Z,33.72
2019-02-25T15:53:26.914Z,33.85
2019-02-25T15:56:01.020Z,33.78
2019-02-25T15:58:31.313Z,33.91
2019-02-25T16:01:03.138Z,34.08
2019-02-25T16:03:36.633Z,34.43
2019-02-25T16:06:10.587Z,34.65
2019-02-25T16:08:41.949Z,34.78
2019-02-25T16:11:14.053Z,34.77
2019-02-25T16:13:45.827Z,34.72
2019-02-25T16:16:17.142Z,33.76
2019-02-25T16:18:48.378Z,34.21
2019-02-25T16:21:19.445Z,34.31
2019-02-25T16:23:50.750Z,34.55
2019-02-25T16:26:21.988Z,34.44
2019-02-25T16:28:55.047Z,34.63
2019-02-25T16:31:26.495Z,34.60
2019-02-25T16:33:58.905Z,34.51
2019-02-25T16:36:31.124Z,34.77
2019-02-25T16:39:07.227Z,34.92
2019-02-25T16:41:40.722Z,35.25
2019-02-25T16:44:12.115Z,35.45
2019-02-25T16:46:43.690Z,35.21
2019-02-25T16:49:16.290Z,35.18
2019-02-25T16:51:47.916Z,35.47
2019-02-25T16:54:21.132Z,35.51
2019-02-25T16:56:52.948Z,35.95
2019-02-25T16:59:24.982Z,36.21
2019-02-25T17:01:58.058Z,36.58
2019-02-25T17:04:31.734Z,37.02
2019-02-25T17:07:02.963Z,37.25
2019-02-25T17:09:45.677Z,37.28
2019-02-25T17:12:17.370Z,37.50
2019-02-25T17:14:49.802Z,37.69
2019-02-25T17:17:22.775Z,37.87
2019-02-25T17:19:54.486Z,38.20
2019-02-25T17:22:25.587Z,38.23
2019-02-25T17:24:58.067Z,38.16
2019-02-25T17:27:29.613Z,38.58
2019-02-25T17:30:00.909Z,38.69
2019-02-25T17:32:33.062Z,39.04
2019-02-25T17:35:05.243Z,39.63
2019-02-25T17:37:39.864Z,39.66
2019-02-25T17:40:13.181Z,40.09
2019-02-25T17:42:45.330Z,40.24
2019-02-25T17:45:19.239Z,40.01
2019-02-25T17:47:58.199Z,40.25
2019-02-25T17:50:24.368Z,40.05
2019-02-25T17:52:55.879Z,40.26
2019-02-25T17:55:29.458Z,40.08
2019-02-25T17:58:01.548Z,39.92
2019-02-25T18:00:42.240Z,40.46
2019-02-25T18:03:15.454Z,40.57
2019-02-25T18:05:46.897Z,40.95
2019-02-25T18:08:18.093Z,40.99
2019-02-25T18:10:50.548Z,40.88
2019-02-25T18:13:23.705Z,41.62
2019-02-25T18:15:55.885Z,41.61
2019-02-25T18:18:27.052Z,41.85
2019-02-25T18:20:58.596Z,41.72
2019-02-25T18:23:30.108Z,41.69
2019-02-25T18:26:01.160Z,41.47
2019-02-25T18:28:34.874Z,41.49
2019-02-25T18:31:09.079Z,42.17
2019-02-25T18:33:39.863Z,42.33
2019-02-25T18:36:11.307Z,42.39
2019-02-25T18:38:44.284Z,42.43
2019-02-25T18:41:21.557Z,42.28
2019-02-25T18:43:53.616Z,42.24
2019-02-25T18:46:25.528Z,42.33
2019-02-25T18:48:57.219Z,42.56
2019-02-25T18:51:30.130Z,42.83
2019-02-25T18:54:03.328Z,42.96
2019-02-25T18:56:35.777Z,43.06
2019-02-25T18:59:11.230Z,43.28
2019-02-25T19:01:40.115Z,43.45
2019-02-25T19:04:13.241Z,43.69
2019-02-25T19:06:45.747Z,43.98
2019-02-25T19:09:22.758Z,44.27
2019-02-25T19:11:55.622Z,44.43
2019-02-25T19:14:28.857Z,44.64
2019-02-25T19:17:02.136Z,44.97
2019-02-25T19:19:34.176Z,44.36
2019-02-25T19:22:08.570Z,44.49
2019-02-25T19:24:42.241Z,44.79
2019-02-25T19:27:13.768Z,44.89
2019-02-25T19:29:45.470Z,44.59
2019-02-25T19:32:17.680Z,44.95
2019-02-25T19:34:49.148Z,44.47
2019-02-25T19:37:20.215Z,44.30
2019-02-25T19:39:51.823Z,44.95
2019-02-25T19:42:24.767Z,44.46
2019-02-25T19:44:58.071Z,45.53
2019-02-25T19:47:30.724Z,45.85
2019-02-25T19:50:07.027Z,45.39
2019-02-25T19:52:39.527Z,45.57
2019-02-25T19:55:13.063Z,45.93
2019-02-25T19:57:46.934Z,46.31
2019-02-25T20:00:27.506Z,46.38
2019-02-25T20:03:05.767Z,46.41
2019-02-25T20:05:33.293Z,46.70
2019-02-25T20:08:04.820Z,46.34
2019-02-25T20:10:36.532Z,46.42
2019-02-25T20:13:08.738Z,46.27
2019-02-25T20:15:41.917Z,46.73
2019-02-25T20:18:13.994Z,46.75
2019-02-25T20:20:45.796Z,46.83
2019-02-25T20:23:17.511Z,46.88
2019-02-25T20:25:49.346Z,47.29
2019-02-25T20:28:22.913Z,47.24
2019-02-25T20:30:54.788Z,47.42
2019-02-25T20:33:30.428Z,47.24
2019-02-25T20:36:01.312Z,47.06
2019-02-25T20:38:32.597Z,47.13
2019-02-25T20:41:05.105Z,47.25
2019-02-25T20:43:36.411Z,47.21
2019-02-25T20:46:08.679Z,47.15
2019-02-25T20:48:39.998Z,47.10
2019-02-25T20:51:11.919Z,47.25
2019-02-25T20:53:43.127Z,47.13
2019-02-25T20:56:14.400Z,47.37
2019-02-25T20:58:46.764Z,47.69
2019-02-25T21:01:18.589Z,47.83
2019-02-25T21:03:52.637Z,48.43
2019-02-25T21:06:23.724Z,48.49
2019-02-25T21:08:55.121Z,48.68
2019-02-25T21:11:26.477Z,48.64
2019-02-25T21:13:57.839Z,48.86
2019-02-25T21:16:30.581Z,48.91
2019-02-25T21:19:01.864Z,48.50
2019-02-25T21:21:36.725Z,49.02
2019-02-25T21:24:08.932Z,48.85
2019-02-25T21:26:41.031Z,49.15
2019-02-25T21:29:12.425Z,49.11
2019-02-25T21:31:47.257Z,48.94
2019-02-25T21:34:20.546Z,49.30
2019-02-25T21:36:49.585Z,49.06
2019-02-25T21:39:20.743Z,48.91
2019-02-25T21:41:51.740Z,50.20
2019-02-25T21:44:24.208Z,49.96
2019-02-25T21:46:56.258Z,49.76
2019-02-25T21:49:33.032Z,49.73
2019-02-25T21:52:06.064Z,49.67
2019-02-25T21:54:35.440Z,49.65
2019-02-25T21:57:08.016Z,49.62
2019-02-25T21:59:41.093Z,49.59
2019-02-25T22:02:12.915Z,49.72
2019-02-25T22:04:45.393Z,49.98
2019-02-25T22:07:19.751Z,50.30
2019-02-25T22:09:50.323Z,50.04
2019-02-25T22:12:22.074Z,50.16
2019-02-25T22:14:53.309Z,50.12
2019-02-25T22:17:24.711Z,50.14
2019-02-25T22:19:55.895Z,51.20
2019-02-25T22:22:28.855Z,51.27
2019-02-25T22:25:04.051Z,51.07
2019-02-25T22:27:36.845Z,51.07
2019-02-25T22:30:10.443Z,51.01
2019-02-25T22:32:43.140Z,50.82
2019-02-25T22:35:15.391Z,50.55
2019-02-25T22:37:49.322Z,51.20
2019-02-25T22:40:19.571Z,50.85
2019-02-25T22:42:52.312Z,50.39
2019-02-25T22:45:23.250Z,50.61
2019-02-25T22:47:54.598Z,50.53
2019-02-25T22:50:27.508Z,50.74
2019-02-25T22:53:01.626Z,51.16
2019-02-25T22:55:36.775Z,51.08
2019-02-25T22:58:08.145Z,51.49
2019-02-25T23:00:43.229Z,51.17
2019-02-25T23:03:17.969Z,51.20
2019-02-25T23:05:50.892Z,51.20
2019-02-25T23:08:23.975Z,51.06
2019-02-25T23:10:55.536Z,51.16
2019-02-25T23:13:28.114Z,50.66
2019-02-25T23:15:59.858Z,51.02
2019-02-25T23:18:31.253Z,51.24
2019-02-25T23:21:03.091Z,51.32
2019-02-25T23:23:35.622Z,51.45
2019-02-25T23:26:07.433Z,51.38
2019-02-25T23:28:38.978Z,51.40
2019-02-25T23:31:10.219Z,51.41
2019-02-25T23:33:42.309Z,51.46
2019-02-25T23:36:15.370Z,51.39
2019-02-25T23:38:47.530Z,51.43
2019-02-25T23:41:18.541Z,51.36
2019-02-25T23:43:50.087Z,51.45
2019-02-25T23:46:25.254Z,51.73
2019-02-25T23:48:54.494Z,52.41
2019-02-25T23:51:25.559Z,52.41
2019-02-25T23:53:57.696Z,51.91
2019-02-25T23:56:30.061Z,52.21
2019-02-25T23:59:02.295Z,52.14
